createdAt,value
2018-10-06T00:00:26.376Z,11.30
2018-10-06T00:01:04.263Z,10.60
2018-10-06T00:01:42.227Z,10.68
2018-10-06T00:02:20.151Z,11.35
2018-10-06T00:02:58.220Z,10.50
2018-10-06T00:03:36.140Z,11.15
2018-10-06T00:04:14.074Z,10.90
2018-10-06T00:04:51.977Z,10.85
2018-10-06T00:05:29.855Z,10.55
2018-10-06T00:06:07.691Z,10.38
2018-10-06T00:06:45.632Z,10.65
2018-10-06T00:07:23.590Z,10.25
2018-10-06T00:08:01.453Z,9.93
2018-10-06T00:08:40.441Z,11.70
2018-10-06T00:09:19.427Z,11.22
2018-10-06T00:09:57.941Z,11.10
2018-10-06T00:10:35.723Z,10.10
2018-10-06T00:11:13.821Z,10.35
2018-10-06T00:11:51.704Z,10.05
2018-10-06T00:12:30.154Z,10.48
2018-10-06T00:13:08.089Z,10.20
2018-10-06T00:13:51.757Z,9.38
2018-10-06T00:14:29.738Z,10.03
2018-10-06T00:15:07.696Z,10.78
2018-10-06T00:15:45.648Z,10.32
2018-10-06T00:16:23.595Z,10.10
2018-10-06T00:17:01.432Z,10.00
2018-10-06T00:17:39.319Z,9.75
2018-10-06T00:18:17.257Z,9.65
2018-10-06T00:18:55.255Z,10.00
2018-10-06T00:19:33.153Z,10.82
2018-10-06T00:20:12.217Z,10.38
2018-10-06T00:20:50.192Z,10.43
2018-10-06T00:21:28.218Z,9.75
2018-10-06T00:22:06.208Z,10.08
2018-10-06T00:22:44.043Z,9.95
2018-10-06T00:23:22.155Z,9.55
2018-10-06T00:24:00.181Z,9.93
2018-10-06T00:24:38.375Z,10.10
2018-10-06T00:25:16.377Z,9.78
2018-10-06T00:25:54.322Z,9.00
2018-10-06T00:26:32.204Z,9.30
2018-10-06T00:27:10.131Z,10.53
2018-10-06T00:27:48.210Z,10.25
2018-10-06T00:28:26.063Z,10.10
2018-10-06T00:29:04.121Z,10.32
2018-10-06T00:29:42.068Z,9.90
2018-10-06T00:30:20.001Z,10.28
2018-10-06T00:30:59.174Z,9.80
2018-10-06T00:31:37.108Z,9.35
2018-10-06T00:32:14.973Z,9.65
2018-10-06T00:32:52.871Z,9.78
2018-10-06T00:33:30.847Z,9.53
2018-10-06T00:34:08.632Z,9.43
2018-10-06T00:34:47.515Z,10.20
2018-10-06T00:35:25.576Z,9.80
2018-10-06T00:36:03.780Z,9.98
2018-10-06T00:36:41.681Z,10.43
2018-10-06T00:37:20.831Z,10.20
2018-10-06T00:37:58.753Z,10.35
2018-10-06T00:38:36.891Z,10.70
2018-10-06T00:39:14.926Z,9.68
2018-10-06T00:39:52.902Z,9.80
2018-10-06T00:40:30.751Z,10.20
2018-10-06T00:41:08.805Z,9.23
2018-10-06T00:41:50.993Z,9.73
2018-10-06T00:42:29.101Z,9.95
2018-10-06T00:43:06.950Z,10.75
2018-10-06T00:43:45.010Z,9.78
2018-10-06T00:44:22.896Z,10.15
2018-10-06T00:45:00.772Z,9.68
2018-10-06T00:45:38.768Z,10.00
2018-10-06T00:46:16.644Z,10.72
2018-10-06T00:46:54.509Z,9.98
2018-10-06T00:47:32.340Z,10.10
2018-10-06T00:48:11.868Z,9.85
2018-10-06T00:48:49.976Z,9.53
2018-10-06T00:49:27.845Z,9.68
2018-10-06T00:50:05.728Z,9.83
2018-10-06T00:50:43.569Z,10.33
2018-10-06T00:51:21.411Z,9.80
2018-10-06T00:51:59.281Z,9.73
2018-10-06T00:52:37.160Z,9.73
2018-10-06T00:53:15.092Z,9.80
2018-10-06T00:53:53.060Z,9.83
2018-10-06T00:54:31.078Z,8.88
2018-10-06T00:55:09.031Z,9.83
2018-10-06T00:55:46.893Z,10.25
2018-10-06T00:56:24.850Z,10.78
2018-10-06T00:57:02.939Z,9.00
2018-10-06T00:57:40.804Z,9.70
2018-10-06T00:58:18.647Z,10.08
2018-10-06T00:58:56.731Z,9.20
2018-10-06T00:59:34.668Z,10.32
2018-10-06T01:00:12.603Z,8.90
2018-10-06T01:00:50.466Z,9.70
2018-10-06T01:01:28.588Z,9.18
2018-10-06T01:02:06.448Z,10.58
2018-10-06T01:02:44.377Z,9.40
2018-10-06T01:03:22.279Z,9.98
2018-10-06T01:04:01.211Z,10.25
2018-10-06T01:04:40.607Z,11.10
2018-10-06T01:05:18.483Z,10.35
2018-10-06T01:05:57.671Z,11.80
2018-10-06T01:06:35.586Z,9.75
2018-10-06T01:07:13.463Z,10.20
2018-10-06T01:07:51.441Z,9.53
2018-10-06T01:08:29.422Z,10.10
2018-10-06T01:09:08.164Z,9.80
2018-10-06T01:09:46.046Z,9.70
2018-10-06T01:10:24.909Z,10.05
2018-10-06T01:11:02.796Z,10.75
2018-10-06T01:11:40.679Z,10.40
2018-10-06T01:12:18.557Z,10.38
2018-10-06T01:12:56.428Z,10.63
2018-10-06T01:13:34.348Z,10.45
2018-10-06T01:14:12.242Z,11.80
2018-10-06T01:14:50.061Z,10.85
2018-10-06T01:15:28.548Z,10.78
2018-10-06T01:16:06.620Z,10.35
2018-10-06T01:16:44.808Z,9.40
2018-10-06T01:17:23.636Z,10.55
2018-10-06T01:18:01.554Z,11.45
2018-10-06T01:18:39.425Z,10.60
2018-10-06T01:19:17.501Z,10.25
2018-10-06T01:19:55.537Z,10.60
2018-10-06T01:20:33.406Z,9.83
2018-10-06T01:21:12.266Z,11.30
2018-10-06T01:21:50.232Z,10.60
2018-10-06T01:22:28.876Z,11.65
2018-10-06T01:23:07.096Z,14.87
2018-10-06T01:23:44.961Z,12.25
2018-10-06T01:24:23.010Z,12.47
2018-10-06T01:25:00.865Z,13.53
2018-10-06T01:25:38.780Z,13.88
2018-10-06T01:26:16.800Z,26.37
2018-10-06T01:26:54.700Z,22.62
2018-10-06T01:27:32.852Z,21.25
2018-10-06T01:28:10.820Z,19.73
2018-10-06T01:28:48.808Z,19.90
2018-10-06T01:29:27.144Z,20.60
2018-10-06T01:30:05.330Z,21.07
2018-10-06T01:30:43.201Z,21.90
2018-10-06T01:31:21.393Z,22.40
2018-10-06T01:31:59.357Z,23.12
2018-10-06T01:32:37.197Z,23.33
2018-10-06T01:33:15.046Z,23.70
2018-10-06T01:33:53.262Z,23.42
2018-10-06T01:34:31.295Z,22.67
2018-10-06T01:35:09.561Z,23.38
2018-10-06T01:35:47.537Z,22.75
2018-10-06T01:36:26.463Z,22.70
2018-10-06T01:37:05.242Z,21.02
2018-10-06T01:37:43.078Z,23.25
2018-10-06T01:38:21.035Z,23.38
2018-10-06T01:38:58.967Z,22.80
2018-10-06T01:39:36.832Z,22.80
2018-10-06T01:40:14.804Z,23.27
2018-10-06T01:40:53.223Z,24.12
2018-10-06T01:41:31.269Z,24.80
2018-10-06T01:42:09.303Z,26.35
2018-10-06T01:42:47.577Z,23.02
2018-10-06T01:43:25.548Z,25.30
2018-10-06T01:44:03.543Z,23.18
2018-10-06T01:44:41.528Z,24.17
2018-10-06T01:45:19.599Z,24.02
2018-10-06T01:45:57.518Z,24.15
2018-10-06T01:46:35.402Z,22.95
2018-10-06T01:47:13.364Z,25.37
2018-10-06T01:47:51.285Z,23.57
2018-10-06T01:48:29.254Z,23.65
2018-10-06T01:49:07.366Z,22.50
2018-10-06T01:49:45.711Z,23.47
2018-10-06T01:50:24.435Z,23.87
2018-10-06T01:51:02.436Z,24.27
2018-10-06T01:51:40.347Z,24.27
2018-10-06T01:52:18.300Z,23.32
2018-10-06T01:52:56.359Z,24.43
2018-10-06T01:53:35.560Z,24.12
2018-10-06T01:54:13.441Z,23.40
2018-10-06T01:54:51.264Z,24.63
2018-10-06T01:55:29.273Z,21.80
2018-10-06T01:56:07.432Z,24.57
2018-10-06T01:56:45.322Z,23.50
2018-10-06T01:57:23.168Z,23.25
2018-10-06T01:58:00.944Z,22.70
2018-10-06T01:58:38.785Z,22.53
2018-10-06T01:59:16.864Z,23.45
2018-10-06T01:59:54.817Z,22.45
2018-10-06T02:00:33.528Z,23.75
2018-10-06T02:01:11.486Z,22.75
2018-10-06T02:01:49.444Z,24.02
2018-10-06T02:02:27.387Z,25.52
2018-10-06T02:03:05.348Z,23.22
2018-10-06T02:03:43.278Z,24.25
2018-10-06T02:04:25.199Z,22.62
2018-10-06T02:05:03.135Z,24.52
2018-10-06T02:05:41.301Z,22.48
2018-10-06T02:06:19.285Z,23.73
2018-10-06T02:06:58.087Z,24.10
2018-10-06T02:07:35.881Z,23.40
2018-10-06T02:08:13.808Z,22.40
2018-10-06T02:08:51.687Z,22.67
2018-10-06T02:09:29.584Z,22.35
2018-10-06T02:10:07.689Z,24.02
2018-10-06T02:10:45.620Z,22.95
2018-10-06T02:11:23.555Z,24.87
2018-10-06T02:12:01.450Z,23.67
2018-10-06T02:12:39.431Z,23.87
2018-10-06T02:13:17.353Z,22.87
2018-10-06T02:13:56.108Z,23.40
2018-10-06T02:14:34.267Z,23.15
2018-10-06T02:15:12.329Z,22.52
2018-10-06T02:15:50.233Z,22.95
2018-10-06T02:16:28.087Z,23.98
2018-10-06T02:17:06.134Z,23.27
2018-10-06T02:17:45.219Z,21.87
2018-10-06T02:18:23.149Z,24.92
2018-10-06T02:19:01.060Z,23.98
2018-10-06T02:19:38.943Z,24.15
2018-10-06T02:20:16.957Z,24.72
2018-10-06T02:20:54.920Z,23.80
2018-10-06T02:21:32.726Z,21.95
2018-10-06T02:22:10.749Z,24.02
2018-10-06T02:22:48.688Z,23.87
2018-10-06T02:23:27.088Z,23.10
2018-10-06T02:24:05.056Z,25.40
2018-10-06T02:24:42.946Z,23.63
2018-10-06T02:25:20.909Z,22.45
2018-10-06T02:25:58.865Z,23.62
2018-10-06T02:26:36.713Z,23.57
2018-10-06T02:27:14.806Z,23.92
2018-10-06T02:27:52.680Z,22.85
2018-10-06T02:28:31.637Z,23.27
2018-10-06T02:29:09.619Z,23.45
2018-10-06T02:29:47.577Z,25.20
2018-10-06T02:30:26.273Z,23.40
2018-10-06T02:31:04.345Z,22.93
2018-10-06T02:31:42.276Z,23.42
2018-10-06T02:32:20.193Z,23.12
2018-10-06T02:32:58.271Z,22.90
2018-10-06T02:33:36.158Z,23.77
2018-10-06T02:34:14.443Z,22.00
2018-10-06T02:34:52.548Z,24.32
2018-10-06T02:35:30.625Z,23.60
2018-10-06T02:36:08.445Z,24.67
2018-10-06T02:36:46.345Z,22.80
2018-10-06T02:37:24.244Z,25.20
2018-10-06T02:38:02.689Z,24.25
2018-10-06T02:38:40.523Z,23.80
2018-10-06T02:39:18.334Z,25.80
2018-10-06T02:39:56.225Z,24.02
2018-10-06T02:40:34.276Z,22.20
2018-10-06T02:41:12.376Z,23.73
2018-10-06T02:41:50.241Z,22.93
2018-10-06T02:42:28.161Z,23.18
2018-10-06T02:43:06.047Z,21.77
2018-10-06T02:43:43.920Z,23.30
2018-10-06T02:44:21.810Z,21.90
2018-10-06T02:44:59.715Z,23.18
2018-10-06T02:45:37.941Z,25.25
2018-10-06T02:46:16.605Z,24.15
2018-10-06T02:46:54.549Z,23.83
2018-10-06T02:47:33.628Z,23.38
2018-10-06T02:48:11.559Z,23.42
2018-10-06T02:48:49.479Z,23.65
2018-10-06T02:49:27.374Z,23.77
2018-10-06T02:50:05.269Z,23.20
2018-10-06T02:50:43.083Z,24.27
2018-10-06T02:51:20.916Z,21.52
2018-10-06T02:51:59.047Z,22.30
2018-10-06T02:52:37.017Z,24.87
2018-10-06T02:53:14.869Z,24.45
2018-10-06T02:53:52.917Z,24.05
2018-10-06T02:54:30.831Z,24.90
2018-10-06T02:55:09.028Z,24.25
2018-10-06T02:55:46.939Z,24.27
2018-10-06T02:56:24.795Z,24.30
2018-10-06T02:57:02.805Z,23.92
2018-10-06T02:57:40.735Z,25.45
2018-10-06T02:58:18.700Z,23.25
2018-10-06T02:58:56.653Z,24.35
2018-10-06T02:59:34.626Z,23.80
2018-10-06T03:00:12.561Z,23.87
2018-10-06T03:00:50.474Z,23.57
2018-10-06T03:01:28.366Z,24.63
2018-10-06T03:02:06.368Z,25.12
2018-10-06T03:02:44.252Z,25.50
2018-10-06T03:03:22.229Z,25.90
2018-10-06T03:04:00.049Z,25.57
2018-10-06T03:04:38.212Z,24.90
2018-10-06T03:05:16.254Z,26.05
2018-10-06T03:05:54.340Z,24.02
2018-10-06T03:06:32.233Z,24.23
2018-10-06T03:07:11.478Z,25.60
2018-10-06T03:07:49.546Z,27.60
2018-10-06T03:08:27.939Z,25.40
2018-10-06T03:09:06.993Z,25.68
2018-10-06T03:09:45.017Z,25.80
2018-10-06T03:10:23.183Z,25.12
2018-10-06T03:11:01.237Z,25.52
2018-10-06T03:11:39.461Z,24.85
2018-10-06T03:12:17.600Z,25.08
2018-10-06T03:12:55.562Z,25.10
2018-10-06T03:13:33.541Z,24.85
2018-10-06T03:14:11.359Z,26.62
2018-10-06T03:14:49.214Z,24.57
2018-10-06T03:15:28.036Z,24.27
2018-10-06T03:16:05.948Z,25.60
2018-10-06T03:16:44.472Z,26.60
2018-10-06T03:17:22.548Z,27.10
2018-10-06T03:18:00.417Z,25.25
2018-10-06T03:18:38.261Z,26.17
2018-10-06T03:19:16.275Z,26.62
2018-10-06T03:19:54.355Z,25.95
2018-10-06T03:20:32.328Z,26.12
2018-10-06T03:21:10.363Z,27.10
2018-10-06T03:21:48.258Z,26.48
2018-10-06T03:22:26.220Z,27.30
2018-10-06T03:23:04.188Z,27.55
2018-10-06T03:23:42.139Z,27.15
2018-10-06T03:24:20.114Z,29.12
2018-10-06T03:24:58.054Z,25.97
2018-10-06T03:25:35.928Z,25.80
2018-10-06T03:26:13.818Z,27.48
2018-10-06T03:26:51.741Z,27.48
2018-10-06T03:27:29.776Z,26.95
2018-10-06T03:28:07.725Z,26.80
2018-10-06T03:28:45.657Z,26.87
2018-10-06T03:29:23.560Z,24.60
2018-10-06T03:30:01.739Z,27.48
2018-10-06T03:30:39.866Z,27.77
2018-10-06T03:31:17.775Z,26.95
2018-10-06T03:31:55.718Z,26.23
2018-10-06T03:32:33.640Z,25.68
2018-10-06T03:33:11.496Z,27.48
2018-10-06T03:33:49.446Z,26.97
2018-10-06T03:34:27.332Z,31.30
2018-10-06T03:35:05.262Z,30.15
2018-10-06T03:35:43.671Z,29.87
2018-10-06T03:36:21.611Z,29.63
2018-10-06T03:36:59.528Z,30.52
2018-10-06T03:37:37.560Z,30.00
2018-10-06T03:38:15.441Z,31.05
2018-10-06T03:38:53.388Z,31.00
2018-10-06T03:39:31.212Z,33.20
2018-10-06T03:40:09.304Z,31.40
2018-10-06T03:40:47.168Z,30.65
2018-10-06T03:41:25.268Z,33.15
2018-10-06T03:42:03.194Z,32.80
2018-10-06T03:42:41.056Z,33.80
2018-10-06T03:43:18.983Z,31.77
2018-10-06T03:43:56.917Z,33.00
2018-10-06T03:44:35.030Z,33.92
2018-10-06T03:45:12.914Z,34.03
2018-10-06T03:45:50.808Z,33.78
2018-10-06T03:46:28.880Z,35.08
2018-10-06T03:47:06.901Z,35.55
2018-10-06T03:47:44.713Z,36.80
2018-10-06T03:48:22.525Z,36.13
2018-10-06T03:49:00.347Z,36.75
2018-10-06T03:49:38.323Z,33.70
2018-10-06T03:50:16.441Z,35.75
2018-10-06T03:50:54.536Z,37.05
2018-10-06T03:51:32.493Z,37.03
2018-10-06T03:52:10.737Z,36.80
2018-10-06T03:52:48.686Z,36.98
2018-10-06T03:53:26.644Z,36.03
2018-10-06T03:54:05.578Z,36.28
2018-10-06T03:54:43.895Z,36.23
2018-10-06T03:55:23.206Z,36.13
2018-10-06T03:56:01.153Z,38.70
2018-10-06T03:56:39.001Z,36.90
2018-10-06T03:57:16.986Z,35.17
2018-10-06T03:57:54.827Z,36.38
2018-10-06T03:58:32.971Z,36.15
2018-10-06T03:59:11.085Z,36.65
2018-10-06T03:59:49.040Z,37.20
2018-10-06T04:00:27.948Z,34.73
2018-10-06T04:01:06.031Z,36.23
2018-10-06T04:01:44.138Z,35.78
2018-10-06T04:02:22.128Z,36.70
2018-10-06T04:03:00.001Z,37.58
2018-10-06T04:03:37.824Z,37.67
2018-10-06T04:04:16.742Z,35.80
2018-10-06T04:04:54.561Z,35.28
2018-10-06T04:05:32.533Z,36.08
2018-10-06T04:06:10.585Z,34.38
2018-10-06T04:06:48.540Z,37.20
2018-10-06T04:07:26.627Z,36.90
2018-10-06T04:08:04.657Z,37.42
2018-10-06T04:08:42.762Z,35.63
2018-10-06T04:09:20.977Z,37.38
2018-10-06T04:09:58.959Z,36.75
2018-10-06T04:10:36.929Z,36.07
2018-10-06T04:11:14.885Z,36.00
2018-10-06T04:11:52.907Z,36.65
2018-10-06T04:12:30.821Z,37.20
2018-10-06T04:13:08.951Z,37.13
2018-10-06T04:13:46.985Z,33.95
2018-10-06T04:14:24.892Z,34.20
2018-10-06T04:15:02.812Z,34.70
2018-10-06T04:15:41.018Z,35.95
2018-10-06T04:16:18.944Z,35.68
2018-10-06T04:16:57.019Z,36.55
2018-10-06T04:17:35.317Z,35.17
2018-10-06T04:18:13.271Z,36.77
2018-10-06T04:18:51.330Z,36.45
2018-10-06T04:19:30.092Z,35.58
2018-10-06T04:20:08.172Z,35.90
2018-10-06T04:20:46.104Z,37.28
2018-10-06T04:21:24.217Z,36.97
2018-10-06T04:22:02.164Z,35.30
2018-10-06T04:22:40.209Z,35.80
2018-10-06T04:23:18.169Z,35.63
2018-10-06T04:23:56.012Z,35.17
2018-10-06T04:24:34.176Z,37.17
2018-10-06T04:25:12.121Z,36.40
2018-10-06T04:25:50.045Z,34.67
2018-10-06T04:26:28.072Z,36.13
2018-10-06T04:27:06.021Z,36.00
2018-10-06T04:27:43.979Z,38.17
2018-10-06T04:28:21.917Z,36.80
2018-10-06T04:28:59.877Z,36.30
2018-10-06T04:29:37.813Z,38.02
2018-10-06T04:30:16.404Z,36.45
2018-10-06T04:30:54.347Z,37.93
2018-10-06T04:31:32.293Z,36.35
2018-10-06T04:32:10.150Z,39.40
2018-10-06T04:32:48.118Z,37.50
2018-10-06T04:33:26.311Z,37.85
2018-10-06T04:34:04.225Z,35.17
2018-10-06T04:34:42.335Z,36.97
2018-10-06T04:35:20.399Z,39.85
2018-10-06T04:35:58.352Z,38.40
2018-10-06T04:36:36.487Z,39.13
2018-10-06T04:37:14.510Z,35.53
2018-10-06T04:37:52.540Z,37.90
2018-10-06T04:38:30.448Z,37.97
2018-10-06T04:39:11.982Z,39.43
2018-10-06T04:39:49.862Z,36.43
2018-10-06T04:40:28.800Z,38.75
2018-10-06T04:41:06.878Z,36.60
2018-10-06T04:41:44.727Z,38.70
2018-10-06T04:42:22.802Z,37.05
2018-10-06T04:43:00.662Z,37.17
2018-10-06T04:43:38.539Z,36.10
2018-10-06T04:44:16.953Z,39.90
2018-10-06T04:44:54.886Z,36.10
2018-10-06T04:45:32.843Z,37.10
2018-10-06T04:46:10.748Z,36.40
2018-10-06T04:46:48.729Z,35.15
2018-10-06T04:47:26.708Z,37.20
2018-10-06T04:48:04.865Z,37.37
2018-10-06T04:48:42.764Z,35.33
2018-10-06T04:49:20.683Z,37.23
2018-10-06T04:49:58.633Z,37.60
2018-10-06T04:50:36.685Z,35.47
2018-10-06T04:51:14.577Z,37.53
2018-10-06T04:51:52.496Z,36.53
2018-10-06T04:52:30.562Z,36.37
2018-10-06T04:53:09.747Z,39.23
2018-10-06T04:53:47.749Z,38.63
2018-10-06T04:54:25.752Z,37.43
2018-10-06T04:55:03.658Z,38.33
2018-10-06T04:55:41.656Z,36.90
2018-10-06T04:56:19.629Z,37.67
2018-10-06T04:56:57.639Z,37.33
2018-10-06T04:57:35.563Z,36.00
2018-10-06T04:58:13.558Z,37.80
2018-10-06T04:58:51.434Z,36.43
2018-10-06T04:59:29.273Z,37.10
2018-10-06T05:00:07.217Z,38.37
2018-10-06T05:00:49.564Z,37.07
2018-10-06T05:01:27.452Z,38.25
2018-10-06T05:02:11.078Z,37.60
2018-10-06T05:02:49.034Z,38.10
2018-10-06T05:03:27.000Z,38.23
2018-10-06T05:04:05.039Z,36.30
2018-10-06T05:04:43.128Z,36.80
2018-10-06T05:05:21.185Z,37.20
2018-10-06T05:05:59.195Z,39.27
2018-10-06T05:06:37.110Z,38.57
2018-10-06T05:07:14.944Z,41.00
2018-10-06T05:07:52.870Z,39.70
2018-10-06T05:08:30.760Z,36.20
2018-10-06T05:09:09.591Z,38.33
2018-10-06T05:09:47.408Z,38.03
2018-10-06T05:10:25.389Z,38.13
2018-10-06T05:11:03.342Z,39.85
2018-10-06T05:11:41.280Z,40.67
2018-10-06T05:12:19.204Z,39.00
2018-10-06T05:13:04.448Z,41.50
2018-10-06T05:13:42.856Z,40.37
2018-10-06T05:14:20.822Z,40.83
2018-10-06T05:14:58.847Z,41.13
2018-10-06T05:15:36.908Z,39.70
2018-10-06T05:16:14.905Z,39.70
2018-10-06T05:16:52.883Z,37.70
2018-10-06T05:17:30.848Z,38.07
2018-10-06T05:18:08.860Z,39.73
2018-10-06T05:18:46.889Z,41.40
2018-10-06T05:19:24.937Z,41.58
2018-10-06T05:20:02.870Z,40.40
2018-10-06T05:20:40.763Z,40.90
2018-10-06T05:21:18.663Z,39.13
2018-10-06T05:21:56.610Z,38.87
2018-10-06T05:22:34.675Z,40.70
2018-10-06T05:23:12.861Z,39.67
2018-10-06T05:23:50.948Z,42.83
2018-10-06T05:24:28.998Z,38.50
2018-10-06T05:25:06.937Z,39.35
2018-10-06T05:25:45.180Z,40.48
2018-10-06T05:26:23.318Z,39.50
2018-10-06T05:27:01.320Z,42.67
2018-10-06T05:27:39.258Z,38.75
2018-10-06T05:28:17.193Z,40.48
2018-10-06T05:28:55.169Z,40.27
2018-10-06T05:29:33.354Z,41.05
2018-10-06T05:30:11.291Z,42.03
2018-10-06T05:30:49.143Z,39.98
2018-10-06T05:31:27.085Z,40.43
2018-10-06T05:32:05.100Z,40.57
2018-10-06T05:32:43.077Z,41.43
2018-10-06T05:33:21.271Z,39.38
2018-10-06T05:33:59.275Z,38.30
2018-10-06T05:34:37.247Z,40.13
2018-10-06T05:35:15.364Z,39.53
2018-10-06T05:35:53.324Z,36.50
2018-10-06T05:36:31.256Z,40.63
2018-10-06T05:37:09.228Z,39.60
2018-10-06T05:37:47.345Z,38.03
2018-10-06T05:38:25.349Z,38.05
2018-10-06T05:39:03.531Z,39.00
2018-10-06T05:39:41.384Z,37.87
2018-10-06T05:40:19.295Z,40.48
2018-10-06T05:40:57.277Z,38.58
2018-10-06T05:41:35.262Z,41.65
2018-10-06T05:42:13.198Z,39.40
2018-10-06T05:42:51.153Z,38.57
2018-10-06T05:43:29.272Z,38.57
2018-10-06T05:44:07.334Z,38.63
2018-10-06T05:44:45.410Z,39.77
2018-10-06T05:45:23.398Z,37.97
2018-10-06T05:46:01.435Z,40.67
2018-10-06T05:46:39.617Z,39.50
2018-10-06T05:47:17.542Z,39.20
2018-10-06T05:47:55.425Z,38.93
2018-10-06T05:48:33.546Z,37.70
2018-10-06T05:49:11.616Z,38.83
2018-10-06T05:49:49.623Z,38.80
2018-10-06T05:50:27.608Z,39.47
2018-10-06T05:51:05.608Z,38.80
2018-10-06T05:51:43.488Z,40.43
2018-10-06T05:52:21.430Z,36.60
2018-10-06T05:52:59.531Z,40.00
2018-10-06T05:53:37.702Z,39.93
2018-10-06T05:54:16.793Z,37.90
2018-10-06T05:55:36.919Z,39.30
2018-10-06T05:56:14.876Z,38.73
2018-10-06T05:56:52.754Z,39.17
2018-10-06T05:57:30.788Z,38.00
2018-10-06T05:58:08.843Z,41.33
2018-10-06T05:58:46.803Z,38.80
2018-10-06T05:59:24.733Z,38.60
2018-10-06T06:00:02.740Z,38.70
2018-10-06T06:00:40.946Z,37.20
2018-10-06T06:01:19.184Z,41.93
2018-10-06T06:01:57.087Z,39.00
2018-10-06T06:02:35.113Z,39.40
2018-10-06T06:03:12.952Z,36.60
2018-10-06T06:03:50.904Z,37.40
2018-10-06T06:04:28.880Z,35.20
2018-10-06T06:05:10.021Z,39.13
2018-10-06T06:05:48.011Z,35.98
2018-10-06T06:06:25.979Z,36.77
2018-10-06T06:07:03.880Z,34.70
2018-10-06T06:07:41.992Z,38.53
2018-10-06T06:08:19.873Z,35.00
2018-10-06T06:08:57.863Z,37.93
2018-10-06T06:09:35.874Z,37.03
2018-10-06T06:10:14.232Z,34.30
2018-10-06T06:10:52.293Z,34.30
2018-10-06T06:11:30.168Z,33.20
2018-10-06T06:12:08.003Z,32.80
2018-10-06T06:12:45.950Z,33.13
2018-10-06T06:13:24.140Z,32.73
2018-10-06T06:14:02.172Z,31.85
2018-10-06T06:14:40.072Z,31.93
2018-10-06T06:15:18.068Z,30.32
2018-10-06T06:15:56.199Z,30.00
2018-10-06T06:16:34.352Z,31.40
2018-10-06T06:17:12.388Z,30.03
2018-10-06T06:17:50.404Z,31.03
2018-10-06T06:18:28.580Z,30.10
2018-10-06T06:19:06.635Z,29.67
2018-10-06T06:19:44.598Z,29.40
2018-10-06T06:20:22.629Z,30.37
2018-10-06T06:21:00.727Z,28.52
2018-10-06T06:21:38.766Z,30.63
2018-10-06T06:22:16.710Z,30.68
2018-10-06T06:22:54.627Z,29.63
2018-10-06T06:23:32.705Z,28.23
2018-10-06T06:24:10.693Z,28.85
2018-10-06T06:24:48.609Z,27.27
2018-10-06T06:25:26.591Z,27.50
2018-10-06T06:26:04.492Z,28.55
2018-10-06T06:26:42.392Z,27.17
2018-10-06T06:27:20.350Z,28.63
2018-10-06T06:27:58.245Z,26.85
2018-10-06T06:28:36.112Z,28.90
2018-10-06T06:29:14.263Z,28.55
2018-10-06T06:29:52.137Z,29.90
2018-10-06T06:30:30.909Z,29.35
2018-10-06T06:31:09.417Z,29.70
2018-10-06T06:31:47.380Z,30.27
2018-10-06T06:32:25.306Z,29.90
2018-10-06T06:33:03.249Z,30.17
2018-10-06T06:33:41.131Z,29.47
2018-10-06T06:34:19.159Z,30.97
2018-10-06T06:34:57.292Z,29.60
2018-10-06T06:35:35.355Z,29.83
2018-10-06T06:36:13.259Z,30.97
2018-10-06T06:36:52.316Z,30.95
2018-10-06T06:37:30.217Z,29.40
2018-10-06T06:38:08.173Z,32.17
2018-10-06T06:38:46.322Z,29.75
2018-10-06T06:39:24.185Z,31.27
2018-10-06T06:40:02.282Z,32.00
2018-10-06T06:40:41.346Z,32.60
2018-10-06T06:41:19.392Z,29.57
2018-10-06T06:41:57.558Z,29.53
2018-10-06T06:42:35.454Z,28.47
2018-10-06T06:43:13.349Z,29.90
2018-10-06T06:43:51.300Z,31.03
2018-10-06T06:44:29.480Z,29.07
2018-10-06T06:45:07.445Z,29.90
2018-10-06T06:45:45.466Z,29.40
2018-10-06T06:46:23.528Z,29.23
2018-10-06T06:47:01.447Z,29.13
2018-10-06T06:47:39.403Z,30.10
2018-10-06T06:48:18.027Z,29.73
2018-10-06T06:48:57.366Z,28.67
2018-10-06T06:49:35.393Z,29.03
2018-10-06T06:50:13.259Z,29.45
2018-10-06T06:50:51.256Z,30.90
2018-10-06T06:51:29.123Z,29.23
2018-10-06T06:52:07.475Z,28.73
2018-10-06T06:52:45.599Z,27.73
2018-10-06T06:53:23.559Z,30.73
2018-10-06T06:54:01.479Z,29.10
2018-10-06T06:54:39.536Z,29.80
2018-10-06T06:55:17.627Z,29.20
2018-10-06T06:55:55.478Z,30.05
2018-10-06T06:56:33.395Z,29.90
2018-10-06T06:57:11.642Z,29.93
2018-10-06T06:57:49.621Z,29.80
2018-10-06T06:58:28.243Z,28.57
2018-10-06T06:59:06.353Z,29.43
2018-10-06T06:59:45.820Z,30.60
2018-10-06T07:00:23.775Z,28.77
2018-10-06T07:01:01.712Z,29.35
2018-10-06T07:01:39.709Z,30.70
2018-10-06T07:02:17.546Z,28.93
2018-10-06T07:02:55.491Z,28.80
2018-10-06T07:03:33.452Z,27.87
2018-10-06T07:04:11.525Z,28.67
2018-10-06T07:04:49.642Z,29.33
2018-10-06T07:05:27.832Z,30.92
2018-10-06T07:06:05.965Z,31.00
2018-10-06T07:06:43.917Z,28.83
2018-10-06T07:07:21.846Z,30.40
2018-10-06T07:07:59.831Z,29.20
2018-10-06T07:08:37.805Z,29.40
2018-10-06T07:09:15.783Z,29.80
2018-10-06T07:09:53.635Z,30.27
2018-10-06T07:10:32.566Z,29.00
2018-10-06T07:11:10.489Z,28.30
2018-10-06T07:11:48.468Z,29.43
2018-10-06T07:12:26.543Z,29.13
2018-10-06T07:13:04.483Z,29.30
2018-10-06T07:13:42.564Z,27.43
2018-10-06T07:14:20.689Z,29.60
2018-10-06T07:14:58.617Z,28.30
2018-10-06T07:15:36.781Z,31.70
2018-10-06T07:16:15.066Z,27.60
2018-10-06T07:16:53.003Z,29.83
2018-10-06T07:17:31.533Z,28.53
2018-10-06T07:18:09.686Z,29.93
2018-10-06T07:18:47.639Z,29.33
2018-10-06T07:19:25.605Z,29.73
2018-10-06T07:20:03.520Z,28.83
2018-10-06T07:20:41.498Z,31.83
2018-10-06T07:21:19.426Z,29.20
2018-10-06T07:21:57.718Z,30.40
2018-10-06T07:22:35.705Z,28.50
2018-10-06T07:23:13.668Z,28.07
2018-10-06T07:23:51.746Z,30.10
2018-10-06T07:24:29.701Z,30.47
2018-10-06T07:25:07.734Z,32.20
2018-10-06T07:25:45.809Z,30.87
2018-10-06T07:26:23.779Z,31.83
2018-10-06T07:27:01.685Z,30.73
2018-10-06T07:27:39.945Z,31.67
2018-10-06T07:28:18.173Z,31.43
2018-10-06T07:28:56.300Z,30.87
2018-10-06T07:29:34.515Z,30.47
2018-10-06T07:30:12.428Z,32.10
2018-10-06T07:30:50.505Z,31.07
2018-10-06T07:31:28.557Z,30.00
2018-10-06T07:32:06.546Z,31.83
2018-10-06T07:32:44.508Z,31.37
2018-10-06T07:33:22.572Z,29.93
2018-10-06T07:34:00.824Z,29.03
2018-10-06T07:34:38.768Z,29.63
2018-10-06T07:35:16.689Z,30.80
2018-10-06T07:35:54.661Z,31.93
2018-10-06T07:36:32.601Z,32.67
2018-10-06T07:37:10.620Z,32.83
2018-10-06T07:37:48.706Z,31.67
2018-10-06T07:38:26.607Z,33.10
2018-10-06T07:39:04.823Z,31.87
2018-10-06T07:39:42.782Z,32.47
2018-10-06T07:40:23.721Z,31.50
2018-10-06T07:41:01.731Z,33.73
2018-10-06T07:41:39.561Z,34.60
2018-10-06T07:42:17.642Z,34.73
2018-10-06T07:42:55.485Z,34.07
2018-10-06T07:43:33.413Z,34.20
2018-10-06T07:44:11.364Z,32.63
2018-10-06T07:44:49.509Z,33.73
2018-10-06T07:45:27.492Z,31.40
2018-10-06T07:46:05.437Z,32.37
2018-10-06T07:46:43.487Z,34.43
2018-10-06T07:47:21.427Z,34.80
2018-10-06T07:47:59.549Z,34.30
2018-10-06T07:48:37.443Z,31.93
2018-10-06T07:49:15.570Z,35.03
2018-10-06T07:49:53.445Z,36.20
2018-10-06T07:50:31.468Z,35.90
2018-10-06T07:51:10.279Z,36.90
2018-10-06T07:51:48.159Z,38.10
2018-10-06T07:52:26.105Z,34.10
2018-10-06T07:53:03.993Z,34.60
2018-10-06T07:53:41.964Z,36.63
2018-10-06T07:54:19.844Z,36.67
2018-10-06T07:54:57.792Z,36.37
2018-10-06T07:55:35.710Z,35.93
2018-10-06T07:56:13.881Z,33.40
2018-10-06T07:56:51.868Z,36.50
2018-10-06T07:57:29.861Z,36.30
2018-10-06T07:58:08.832Z,36.47
2018-10-06T07:58:46.701Z,36.30
2018-10-06T07:59:24.855Z,35.70
2018-10-06T08:00:02.864Z,36.17
2018-10-06T08:00:41.977Z,34.53
2018-10-06T08:01:19.916Z,37.77
2018-10-06T08:01:57.839Z,37.27
2018-10-06T08:02:36.060Z,35.50
2018-10-06T08:03:14.231Z,35.40
2018-10-06T08:03:52.193Z,37.50
2018-10-06T08:04:30.198Z,37.30
2018-10-06T08:05:08.252Z,37.53
2018-10-06T08:05:46.275Z,36.37
2018-10-06T08:06:24.224Z,36.33
2018-10-06T08:07:02.131Z,37.57
2018-10-06T08:07:40.215Z,36.83
2018-10-06T08:08:18.112Z,40.80
2018-10-06T08:08:56.192Z,35.50
2018-10-06T08:09:34.165Z,38.37
2018-10-06T08:10:12.156Z,39.23
2018-10-06T08:10:50.145Z,38.90
2018-10-06T08:11:28.091Z,38.50
2018-10-06T08:12:06.134Z,39.63
2018-10-06T08:12:44.274Z,38.83